createdAt,value
2022-11-18T00:01:04.656Z,92176.22
2022-11-18T00:03:31.057Z,92174.91
2022-11-18T00:05:57.762Z,92187.84
2022-11-18T00:08:26.007Z,92178.34
2022-11-18T00:10:52.575Z,92133.44
2022-11-18T00:13:37.788Z,92144.00
2022-11-18T00:16:07.095Z,92160.28
2022-11-18T00:18:33.681Z,92137.66
2022-11-18T00:21:09.520Z,92139.94
2022-11-18T00:23:36.668Z,92126.84
2022-11-18T00:26:12.416Z,92157.06
2022-11-18T00:28:40.086Z,92173.84
2022-11-18T00:31:09.402Z,92193.22
2022-11-18T00:33:36.973Z,92161.88
2022-11-18T00:36:05.217Z,92183.69
2022-11-18T00:38:31.648Z,92174.75
2022-11-18T00:41:08.412Z,92188.47
2022-11-18T00:43:35.352Z,92176.84
2022-11-18T00:46:02.539Z,92167.06
2022-11-18T00:48:29.480Z,92201.50
2022-11-18T00:51:05.959Z,92198.78
2022-11-18T00:53:32.248Z,92196.16
2022-11-18T00:55:58.834Z,92169.53
2022-11-18T00:58:25.305Z,92137.22
2022-11-18T01:00:52.667Z,92193.16
2022-11-18T01:03:20.202Z,92193.16
2022-11-18T01:05:47.263Z,92193.69
2022-11-18T01:08:13.761Z,92192.69
2022-11-18T01:10:41.087Z,92194.66
2022-11-18T01:13:24.542Z,92181.91
2022-11-18T01:15:57.372Z,92162.41
2022-11-18T01:18:30.800Z,92193.03
2022-11-18T01:21:01.625Z,92158.25
2022-11-18T01:23:28.222Z,92148.31
2022-11-18T01:25:56.068Z,92138.78
2022-11-18T01:28:24.154Z,92181.97
2022-11-18T01:30:51.221Z,92152.50
2022-11-18T01:33:17.794Z,92163.72
2022-11-18T01:35:45.466Z,92144.72
2022-11-18T01:38:17.087Z,92185.47
2022-11-18T01:40:43.625Z,92162.03
2022-11-18T01:43:19.158Z,92184.06
2022-11-18T01:45:47.874Z,92187.56
2022-11-18T01:48:26.562Z,92169.88
2022-11-18T01:50:58.052Z,92156.22
2022-11-18T01:53:32.509Z,92145.84
2022-11-18T01:56:04.303Z,92130.41
2022-11-18T01:58:37.865Z,92193.78
2022-11-18T02:01:06.476Z,92187.41
2022-11-18T02:03:34.517Z,92187.84
2022-11-18T02:06:02.832Z,92195.41
2022-11-18T02:08:30.828Z,92123.00
2022-11-18T02:10:57.267Z,92201.44
2022-11-18T02:13:24.303Z,92174.91
2022-11-18T02:16:15.730Z,92201.44
2022-11-18T02:19:01.933Z,92202.56
2022-11-18T02:21:59.692Z,92198.97
2022-11-18T02:24:43.443Z,92163.19
2022-11-18T02:27:47.326Z,92198.97
2022-11-18T02:30:16.804Z,92188.03
2022-11-18T02:33:06.061Z,92204.16
2022-11-18T02:35:43.448Z,92186.16
2022-11-18T02:38:15.085Z,92171.47
2022-11-18T02:40:47.949Z,92190.50
2022-11-18T02:43:21.584Z,92223.78
2022-11-18T02:45:52.133Z,92225.38
2022-11-18T02:48:22.117Z,92237.25
2022-11-18T02:50:50.606Z,92222.75
2022-11-18T02:53:20.455Z,92225.13
2022-11-18T02:55:49.265Z,92204.97
2022-11-18T02:58:18.833Z,92209.41
2022-11-18T03:01:00.743Z,92214.25
2022-11-18T03:03:33.157Z,92228.03
2022-11-18T03:06:19.381Z,92242.00
2022-11-18T03:08:52.201Z,92240.72
2022-11-18T03:11:23.587Z,92245.16
2022-11-18T03:14:11.749Z,92244.22
2022-11-18T03:17:04.486Z,92247.00
2022-11-18T03:20:03.444Z,92236.31
2022-11-18T03:22:42.570Z,92226.81
2022-11-18T03:25:15.071Z,92248.81
2022-11-18T03:28:03.099Z,92255.84
2022-11-18T03:30:32.957Z,92258.50
2022-11-18T03:33:06.032Z,92244.59
2022-11-18T03:35:36.798Z,92259.63
2022-11-18T03:38:08.681Z,92237.94
2022-11-18T03:40:38.946Z,92225.09
2022-11-18T03:43:11.827Z,92261.03
2022-11-18T03:45:46.096Z,92249.88
2022-11-18T03:48:38.776Z,92264.97
2022-11-18T03:51:11.600Z,92252.22
2022-11-18T03:53:43.018Z,92186.00
2022-11-18T03:56:17.624Z,92267.25
2022-11-18T03:59:10.458Z,92218.94
2022-11-18T04:01:50.557Z,92226.78
2022-11-18T04:04:17.255Z,92253.13
2022-11-18T04:07:17.839Z,92279.34
2022-11-18T04:09:56.306Z,92268.81
2022-11-18T04:12:23.647Z,92257.66
2022-11-18T04:14:52.362Z,92287.84
2022-11-18T04:17:26.711Z,92256.53
2022-11-18T04:19:53.448Z,92300.38
2022-11-18T04:22:20.198Z,92274.63
2022-11-18T04:24:46.770Z,92263.81
2022-11-18T04:27:20.167Z,92287.53
2022-11-18T04:29:46.590Z,92239.66
2022-11-18T04:32:13.010Z,92283.38
2022-11-18T04:34:39.438Z,92270.34
2022-11-18T04:37:05.957Z,92269.97
2022-11-18T04:39:32.374Z,92260.16
2022-11-18T04:42:00.882Z,92242.75
2022-11-18T04:44:30.076Z,92295.63
2022-11-18T04:47:00.332Z,92258.28
2022-11-18T04:49:27.684Z,92295.63
2022-11-18T04:51:54.731Z,92132.59
2022-11-18T04:54:21.607Z,92122.56
2022-11-18T04:56:57.569Z,92242.78
2022-11-18T04:59:26.699Z,92287.97
2022-11-18T05:02:01.376Z,92277.38
2022-11-18T05:04:30.838Z,92262.16
2022-11-18T05:06:57.970Z,92259.69
2022-11-18T05:09:31.353Z,92296.25
2022-11-18T05:12:48.247Z,92298.31
2022-11-18T05:15:16.114Z,92264.47
2022-11-18T05:17:43.197Z,92284.06
2022-11-18T05:20:10.804Z,92294.53
2022-11-18T05:22:37.251Z,92293.53
2022-11-18T05:25:04.432Z,92288.63
2022-11-18T05:27:30.859Z,92274.00
2022-11-18T05:30:04.153Z,92281.22
2022-11-18T05:32:30.651Z,92297.94
2022-11-18T05:34:57.191Z,92311.19
2022-11-18T05:37:23.630Z,92302.84
2022-11-18T05:39:50.086Z,92348.97
2022-11-18T05:42:35.221Z,92367.63
2022-11-18T05:45:09.084Z,92341.03
2022-11-18T05:47:55.471Z,92323.13
2022-11-18T05:50:21.991Z,92313.56
2022-11-18T05:52:48.575Z,92391.09
2022-11-18T05:55:16.191Z,92369.31
2022-11-18T05:57:42.626Z,92342.72
2022-11-18T06:00:09.642Z,92354.59
2022-11-18T06:02:36.649Z,92356.59
2022-11-18T06:05:05.636Z,92358.84
2022-11-18T06:07:39.102Z,92323.94
2022-11-18T06:10:28.888Z,92378.94
2022-11-18T06:13:02.077Z,92262.19
2022-11-18T06:15:33.649Z,92375.81
2022-11-18T06:18:08.495Z,92409.66
2022-11-18T06:20:38.091Z,92277.63
2022-11-18T06:23:04.782Z,92284.03
2022-11-18T06:25:33.891Z,92273.31
2022-11-18T06:28:02.443Z,92416.63
2022-11-18T06:30:28.929Z,92319.13
2022-11-18T06:32:58.591Z,92413.28
2022-11-18T06:35:26.084Z,92408.97
2022-11-18T06:37:58.691Z,92390.75
2022-11-18T06:40:25.325Z,92337.00
2022-11-18T06:43:10.804Z,92438.84
2022-11-18T06:45:37.349Z,92390.22
2022-11-18T06:48:04.243Z,92370.47
2022-11-18T06:50:30.976Z,92264.69
2022-11-18T06:53:00.818Z,92184.00
2022-11-18T06:55:27.266Z,92314.16
2022-11-18T06:57:56.683Z,92416.81
2022-11-18T07:00:23.221Z,92288.94
2022-11-18T07:02:49.704Z,92383.59
2022-11-18T07:05:16.213Z,92202.31
2022-11-18T07:07:42.767Z,92302.31
2022-11-18T07:10:09.820Z,92413.38
2022-11-18T07:12:36.295Z,92319.56
2022-11-18T07:15:02.930Z,92379.16
2022-11-18T07:17:32.603Z,92423.13
2022-11-18T07:19:59.049Z,92446.22
2022-11-18T07:22:25.499Z,92432.22
2022-11-18T07:24:59.044Z,92428.78
2022-11-18T07:27:25.471Z,92453.50
2022-11-18T07:29:58.217Z,92428.06
2022-11-18T07:32:24.673Z,92379.56
2022-11-18T07:34:51.112Z,92383.13
2022-11-18T07:37:17.584Z,92453.75
2022-11-18T07:39:44.079Z,92464.16
2022-11-18T07:42:10.600Z,92478.91
2022-11-18T07:44:37.039Z,92441.41
2022-11-18T07:47:03.484Z,92452.53
2022-11-18T07:49:29.957Z,92471.03
2022-11-18T07:51:56.459Z,92407.91
2022-11-18T07:54:23.193Z,92424.81
2022-11-18T07:56:50.743Z,92466.63
2022-11-18T07:59:17.612Z,92467.78
2022-11-18T08:01:44.369Z,92481.78
2022-11-18T08:04:13.315Z,92477.78
2022-11-18T08:06:42.028Z,92509.56
2022-11-18T08:09:08.912Z,92505.16
2022-11-18T08:11:35.985Z,92496.47
2022-11-18T08:14:02.666Z,92518.84
2022-11-18T08:16:29.713Z,92523.34
2022-11-18T08:18:56.192Z,92451.31
2022-11-18T08:21:23.330Z,92438.94
2022-11-18T08:23:56.975Z,92497.91
2022-11-18T08:26:24.873Z,92526.06
2022-11-18T08:28:51.982Z,92530.88
2022-11-18T08:31:21.776Z,92528.47
2022-11-18T08:33:48.256Z,92530.56
2022-11-18T08:36:21.806Z,92450.19
2022-11-18T08:38:48.595Z,92449.75
2022-11-18T08:41:19.110Z,92542.94
2022-11-18T08:43:45.932Z,92488.75
2022-11-18T08:46:17.074Z,92500.75
2022-11-18T08:48:43.501Z,92533.72
2022-11-18T08:51:12.321Z,92548.03
2022-11-18T08:53:38.909Z,92539.69
2022-11-18T08:56:05.783Z,92453.84
2022-11-18T08:58:32.387Z,92537.69
2022-11-18T09:00:58.904Z,92498.53
2022-11-18T09:03:25.390Z,92509.13
2022-11-18T09:05:51.908Z,92549.28
2022-11-18T09:08:18.496Z,92514.06
2022-11-18T09:10:44.891Z,92501.19
2022-11-18T09:13:40.402Z,92535.44
2022-11-18T09:16:06.504Z,92538.22
2022-11-18T09:18:33.176Z,92516.75
2022-11-18T09:21:05.405Z,92554.56
2022-11-18T09:23:33.357Z,92539.00
2022-11-18T09:26:06.151Z,92518.72
2022-11-18T09:28:33.523Z,92559.25
2022-11-18T09:31:04.161Z,92570.03
2022-11-18T09:33:30.951Z,92572.81
2022-11-18T09:36:06.433Z,92565.31
2022-11-18T09:38:33.195Z,92520.66
2022-11-18T09:41:10.932Z,92583.59
2022-11-18T09:43:40.286Z,92594.38
2022-11-18T09:46:53.227Z,92598.41
2022-11-18T09:49:25.702Z,92597.16
2022-11-18T09:51:54.682Z,92590.88
2022-11-18T09:54:33.810Z,92591.25
2022-11-18T09:57:00.936Z,92579.31
2022-11-18T09:59:31.385Z,92537.47
2022-11-18T10:02:17.327Z,92491.44
2022-11-18T10:04:43.890Z,92528.66
2022-11-18T10:07:28.528Z,92586.44
2022-11-18T10:09:58.055Z,92554.53
2022-11-18T10:12:39.811Z,92584.97
2022-11-18T10:15:21.313Z,92598.28
2022-11-18T10:17:54.954Z,92603.09
2022-11-18T10:20:31.500Z,92587.47
2022-11-18T10:23:16.140Z,92606.03
2022-11-18T10:25:43.011Z,92605.91
2022-11-18T10:28:20.748Z,92562.66
2022-11-18T10:30:47.474Z,92578.41
2022-11-18T10:33:23.874Z,92573.63
2022-11-18T10:36:15.341Z,92611.09
2022-11-18T10:38:48.474Z,92609.31
2022-11-18T10:41:20.472Z,92602.81
2022-11-18T10:43:51.429Z,92619.72
2022-11-18T10:46:26.365Z,92608.38
2022-11-18T10:49:11.111Z,92610.06
2022-11-18T10:51:41.893Z,92607.53
2022-11-18T10:54:16.117Z,92619.06
2022-11-18T10:56:57.573Z,92624.34
2022-11-18T10:59:32.513Z,92611.97
2022-11-18T11:02:31.160Z,92630.47
2022-11-18T11:05:01.377Z,92604.41
2022-11-18T11:07:36.738Z,92615.94
2022-11-18T11:10:12.748Z,92616.72
2022-11-18T11:12:47.136Z,92582.38
2022-11-18T11:15:18.525Z,92569.47
2022-11-18T11:18:42.453Z,92622.25
2022-11-18T11:21:13.131Z,92613.97
2022-11-18T11:23:39.715Z,92631.84
2022-11-18T11:29:30.759Z,92636.59
2022-11-18T11:32:19.574Z,92622.69
2022-11-18T11:34:52.013Z,92615.84
2022-11-18T11:37:43.467Z,92632.22
2022-11-18T11:40:12.911Z,92628.53
2022-11-18T11:43:36.872Z,92633.00
2022-11-18T11:46:12.148Z,92638.53
2022-11-18T11:49:01.375Z,92636.16
2022-11-18T11:51:44.029Z,92651.81
2022-11-18T11:54:55.080Z,92641.00
2022-11-18T11:57:48.444Z,92637.41
2022-11-18T12:00:17.371Z,92645.38
2022-11-18T12:03:05.899Z,92634.25
2022-11-18T12:05:36.729Z,92649.38
2022-11-18T12:08:29.243Z,92653.03
2022-11-18T12:11:30.558Z,92657.44
2022-11-18T12:14:26.368Z,92665.78
2022-11-18T12:17:25.955Z,92660.59
2022-11-18T12:19:52.392Z,92659.63
2022-11-18T12:22:18.904Z,92635.66
2022-11-18T12:24:45.392Z,92545.47
2022-11-18T12:27:37.467Z,92533.66
2022-11-18T12:30:04.353Z,92568.09
2022-11-18T12:32:42.339Z,92594.72
2022-11-18T12:35:12.090Z,92652.47
2022-11-18T12:38:03.402Z,92651.28
2022-11-18T12:40:51.906Z,92654.50
2022-11-18T12:43:44.070Z,92640.88
2022-11-18T12:46:34.715Z,92637.28
2022-11-18T12:49:22.915Z,92649.63
2022-11-18T12:51:52.192Z,92622.19
2022-11-18T12:54:26.602Z,92649.34
2022-11-18T12:56:55.154Z,92629.41
2022-11-18T12:59:28.957Z,92568.84
2022-11-18T13:02:26.250Z,92640.53
2022-11-18T13:05:10.985Z,92665.75
2022-11-18T13:08:05.780Z,92596.97
2022-11-18T13:10:35.542Z,92654.41
2022-11-18T13:13:02.659Z,92635.94
2022-11-18T13:15:48.209Z,92635.88
2022-11-18T13:18:18.206Z,92534.31
2022-11-18T13:20:55.096Z,92598.66
2022-11-18T13:23:49.428Z,92646.69
2022-11-18T13:26:44.877Z,92595.47
2022-11-18T13:29:32.308Z,92659.47
2022-11-18T13:32:16.045Z,92671.78
2022-11-18T13:34:56.566Z,92672.22
2022-11-18T13:37:29.964Z,92672.81
2022-11-18T13:40:25.109Z,92651.63
2022-11-18T13:42:55.156Z,92643.91
2022-11-18T13:45:27.141Z,92659.91
2022-11-18T13:48:06.279Z,92680.88
2022-11-18T13:50:54.956Z,92674.28
2022-11-18T13:53:39.511Z,92678.25
2022-11-18T13:56:35.178Z,92683.44
2022-11-18T13:59:20.271Z,92664.72
2022-11-18T14:01:54.152Z,92664.69
2022-11-18T14:04:23.731Z,92691.00
2022-11-18T14:07:22.891Z,92663.91
2022-11-18T14:09:54.384Z,92688.63
2022-11-18T14:12:29.563Z,92694.81
2022-11-18T14:15:20.457Z,92685.44
2022-11-18T14:17:55.704Z,92703.03
2022-11-18T14:20:23.492Z,92720.97
2022-11-18T14:22:57.630Z,92683.44
2022-11-18T14:25:32.812Z,92724.16
2022-11-18T14:28:13.349Z,92689.41
2022-11-18T14:30:41.921Z,92708.91
2022-11-18T14:33:20.781Z,92742.72
2022-11-18T14:35:52.383Z,92736.78
2022-11-18T14:38:52.451Z,92714.16
2022-11-18T14:41:14.895Z,92709.56
2022-11-18T14:43:43.595Z,92698.72
2022-11-18T14:46:17.060Z,92734.03
2022-11-18T14:48:43.887Z,92711.69
2022-11-18T14:51:13.574Z,92733.78
2022-11-18T14:53:44.823Z,92735.22
2022-11-18T14:56:21.421Z,92729.47
2022-11-18T14:58:47.846Z,92764.59
2022-11-18T15:01:14.409Z,92768.16
2022-11-18T15:03:40.898Z,92756.53
2022-11-18T15:06:15.197Z,92763.56
2022-11-18T15:08:43.273Z,92743.06
2022-11-18T15:11:19.128Z,92752.66
2022-11-18T15:13:45.865Z,92766.03
2022-11-18T15:16:21.354Z,92755.88
2022-11-18T15:18:49.924Z,92714.59
2022-11-18T15:21:17.204Z,92760.94
2022-11-18T15:23:44.045Z,92751.47
2022-11-18T15:26:25.815Z,92767.47
2022-11-18T15:28:55.273Z,92766.69
2022-11-18T15:31:23.630Z,92785.13
2022-11-18T15:33:51.068Z,92767.78
2022-11-18T15:36:20.087Z,92771.09
2022-11-18T15:38:47.247Z,92789.44
2022-11-18T15:41:16.881Z,92791.84
2022-11-18T15:43:44.529Z,92787.06
2022-11-18T15:46:11.191Z,92772.06
2022-11-18T15:48:37.902Z,92747.50
2022-11-18T15:51:08.901Z,92766.06
2022-11-18T15:53:38.209Z,92773.00
2022-11-18T15:56:22.958Z,92792.19
2022-11-18T15:58:56.764Z,92797.81
2022-11-18T16:01:27.501Z,92760.28
2022-11-18T16:03:54.441Z,92745.50
2022-11-18T16:06:21.222Z,92789.91
2022-11-18T16:08:47.748Z,92780.34
2022-11-18T16:11:34.571Z,92781.59
2022-11-18T16:14:04.530Z,92783.56
2022-11-18T16:16:31.664Z,92727.25
2022-11-18T16:18:59.636Z,92759.53
2022-11-18T16:21:29.251Z,92775.59
2022-11-18T16:23:57.960Z,92768.78
2022-11-18T16:26:25.524Z,92796.75
2022-11-18T16:28:52.314Z,92795.97
2022-11-18T16:31:37.366Z,92797.72
2022-11-18T16:34:14.021Z,92796.75
2022-11-18T16:36:55.097Z,92764.31
2022-11-18T16:39:29.092Z,92814.66
2022-11-18T16:42:08.068Z,92815.47
2022-11-18T16:44:35.733Z,92812.69
2022-11-18T16:47:12.391Z,92824.28
2022-11-18T16:49:42.809Z,92787.97
2022-11-18T16:52:09.435Z,92791.56
2022-11-18T16:54:47.026Z,92795.34
2022-11-18T16:57:22.658Z,92800.94
2022-11-18T16:59:51.312Z,92777.94
2022-11-18T17:02:20.428Z,92818.66
2022-11-18T17:04:56.232Z,92804.03
2022-11-18T17:07:25.695Z,92829.56
2022-11-18T17:09:56.211Z,92814.22
2022-11-18T17:12:24.690Z,92799.41
2022-11-18T17:14:52.184Z,92720.69
2022-11-18T17:17:18.617Z,92793.38
2022-11-18T17:19:48.008Z,92792.34
2022-11-18T17:22:14.488Z,92830.59
2022-11-18T17:24:42.924Z,92826.75
2022-11-18T17:27:11.388Z,92815.38
2022-11-18T17:29:50.886Z,92809.78
2022-11-18T17:32:20.413Z,92825.25
2022-11-18T17:34:46.855Z,92813.69
2022-11-18T17:37:19.470Z,92824.81
2022-11-18T17:39:46.019Z,92773.34
2022-11-18T17:42:15.403Z,92842.84
2022-11-18T17:44:41.876Z,92809.41
2022-11-18T17:47:09.827Z,92864.41
2022-11-18T17:49:39.308Z,92851.66
2022-11-18T17:52:19.303Z,92866.78
2022-11-18T17:55:02.938Z,92843.69
2022-11-18T17:57:29.436Z,92844.88
2022-11-18T17:59:56.955Z,92844.44
2022-11-18T18:02:23.575Z,92877.22
2022-11-18T18:04:50.041Z,92860.22
2022-11-18T18:07:16.531Z,92878.91
2022-11-18T18:09:43.160Z,92880.09
2022-11-18T18:12:27.888Z,92845.75
2022-11-18T18:14:54.322Z,92852.84
2022-11-18T18:17:40.116Z,92895.34
2022-11-18T18:20:07.125Z,92892.56
2022-11-18T18:22:37.701Z,92873.38
2022-11-18T18:25:06.765Z,92878.56
2022-11-18T18:27:36.137Z,92901.72
2022-11-18T18:30:08.121Z,92907.28
2022-11-18T18:32:34.823Z,92836.44
2022-11-18T18:35:01.582Z,92896.06
2022-11-18T18:37:28.015Z,92894.06
2022-11-18T18:39:54.710Z,92871.16
2022-11-18T18:42:21.249Z,92869.53
2022-11-18T18:45:06.308Z,92885.81
2022-11-18T18:47:39.075Z,92883.50
2022-11-18T18:50:05.930Z,92886.97
2022-11-18T18:52:32.753Z,92911.88
2022-11-18T18:55:08.909Z,92887.03
2022-11-18T18:57:35.369Z,92899.09
2022-11-18T19:00:02.010Z,92892.09
2022-11-18T19:02:28.402Z,92895.28
2022-11-18T19:04:55.124Z,92861.38
2022-11-18T19:07:22.630Z,92900.66
2022-11-18T19:09:56.263Z,92882.91
2022-11-18T19:12:41.329Z,92917.72
2022-11-18T19:15:08.186Z,92918.94
2022-11-18T19:17:36.937Z,92917.31
2022-11-18T19:20:22.602Z,92907.94
2022-11-18T19:22:49.016Z,92908.75
2022-11-18T19:25:15.817Z,92857.13
2022-11-18T19:27:42.290Z,92909.00
2022-11-18T19:30:10.942Z,92902.19
2022-11-18T19:32:41.296Z,92937.03
2022-11-18T19:35:12.881Z,92923.84
2022-11-18T19:37:39.448Z,92877.53
2022-11-18T19:40:09.185Z,92884.34
2022-11-18T19:42:41.956Z,92910.72
2022-11-18T19:45:11.081Z,92935.72
2022-11-18T19:47:43.925Z,92896.41
2022-11-18T19:50:15.686Z,92913.91
2022-11-18T19:52:42.241Z,92870.38
2022-11-18T19:55:09.792Z,92906.34
2022-11-18T19:57:38.316Z,92911.53
2022-11-18T20:00:05.355Z,92914.13
2022-11-18T20:02:31.791Z,92911.13
2022-11-18T20:05:19.462Z,92939.84
2022-11-18T20:07:45.913Z,92895.44
2022-11-18T20:10:12.373Z,92928.19
2022-11-18T20:12:39.924Z,92910.53
2022-11-18T20:15:08.987Z,92923.69
2022-11-18T20:17:35.522Z,92928.94
2022-11-18T20:20:04.304Z,92887.41
2022-11-18T20:22:34.075Z,92951.28
2022-11-18T20:25:01.209Z,92944.16
2022-11-18T20:27:28.693Z,92931.69
2022-11-18T20:29:55.878Z,92928.47
2022-11-18T20:32:25.419Z,92940.75
2022-11-18T20:34:53.190Z,92925.66
2022-11-18T20:37:23.297Z,92956.63
2022-11-18T20:39:53.312Z,92933.66
2022-11-18T20:42:38.415Z,92895.25
2022-11-18T20:45:10.805Z,92936.66
2022-11-18T20:47:37.362Z,92914.53
2022-11-18T20:50:05.136Z,92943.59
2022-11-18T20:52:33.821Z,92948.78
2022-11-18T20:55:05.498Z,92934.25
2022-11-18T20:57:36.315Z,92921.59
2022-11-18T21:00:02.887Z,92959.44
2022-11-18T21:02:36.348Z,92950.75
2022-11-18T21:05:06.169Z,92928.66
2022-11-18T21:07:35.871Z,92944.72
2022-11-18T21:10:07.385Z,92924.69
2022-11-18T21:12:33.885Z,92966.72
2022-11-18T21:15:00.303Z,92971.53
2022-11-18T21:17:28.854Z,92954.31
2022-11-18T21:19:56.269Z,92937.88
2022-11-18T21:22:27.836Z,92946.84
2022-11-18T21:25:04.879Z,92925.47
2022-11-18T21:27:32.358Z,92939.03
2022-11-18T21:30:00.776Z,92936.28
2022-11-18T21:32:29.201Z,92938.47
2022-11-18T21:34:55.631Z,92919.72
2022-11-18T21:37:22.019Z,92941.13
2022-11-18T21:39:48.464Z,92963.81
2022-11-18T21:42:14.861Z,92945.22
2022-11-18T21:44:43.273Z,92936.50
2022-11-18T21:47:09.701Z,92944.28
2022-11-18T21:49:36.102Z,92942.97
2022-11-18T21:52:02.483Z,92952.97
2022-11-18T21:54:28.909Z,92964.44
2022-11-18T21:56:56.501Z,92950.03
2022-11-18T21:59:27.073Z,92940.16
2022-11-18T22:01:53.470Z,92950.97
2022-11-18T22:04:39.573Z,92930.00
2022-11-18T22:07:06.033Z,92971.25
2022-11-18T22:09:40.783Z,92952.44
2022-11-18T22:12:07.672Z,92960.06
2022-11-18T22:14:34.308Z,92931.22
2022-11-18T22:17:00.721Z,92966.06
2022-11-18T22:19:27.147Z,92968.44
2022-11-18T22:21:53.784Z,92927.38
2022-11-18T22:24:20.613Z,92981.19
2022-11-18T22:26:47.057Z,92954.56
2022-11-18T22:29:13.474Z,92936.78
2022-11-18T22:31:39.884Z,92941.22
2022-11-18T22:34:06.325Z,92947.50
2022-11-18T22:36:32.898Z,92946.16
2022-11-18T22:38:59.393Z,92938.53
2022-11-18T22:41:45.875Z,92983.97
2022-11-18T22:44:30.717Z,92960.81
2022-11-18T22:46:57.135Z,92954.00
2022-11-18T22:49:23.567Z,92966.81
2022-11-18T22:52:05.466Z,92955.97
2022-11-18T22:54:38.853Z,92948.75
2022-11-18T22:57:06.554Z,92970.38
2022-11-18T22:59:32.965Z,92965.59
2022-11-18T23:02:01.834Z,92951.75
2022-11-18T23:04:28.267Z,92973.03
2022-11-18T23:06:54.732Z,92935.56
2022-11-18T23:09:21.701Z,92958.44
2022-11-18T23:12:11.008Z,92974.06
2022-11-18T23:14:43.561Z,92950.91
2022-11-18T23:17:16.281Z,92971.31
2022-11-18T23:19:43.925Z,92965.69
2022-11-18T23:22:11.782Z,92938.47
2022-11-18T23:24:38.407Z,92894.88
2022-11-18T23:27:05.152Z,92993.22
2022-11-18T23:29:31.626Z,92978.88
2022-11-18T23:31:58.117Z,92985.28
2022-11-18T23:34:24.618Z,92963.94
2022-11-18T23:36:51.031Z,92930.13
2022-11-18T23:39:18.064Z,92950.53
2022-11-18T23:41:44.722Z,92968.06
2022-11-18T23:44:11.195Z,92942.22
2022-11-18T23:46:37.628Z,92960.94
2022-11-18T23:49:08.532Z,92968.44
2022-11-18T23:51:35.003Z,92959.19
2022-11-18T23:54:01.506Z,92975.22
2022-11-18T23:56:28.201Z,92964.44
2022-11-18T23:58:56.217Z,92982.31
